sensor_id;sensor_type;location;lat;lon;timestamp;temperature;humidity
2202;DHT22;1107;48.654;9.250;2022-07-01T00:01:35;16.10;26.00
2202;DHT22;1107;48.654;9.250;2022-07-01T00:04:04;16.10;49.90
2202;DHT22;1107;48.654;9.250;2022-07-01T00:06:31;16.10;43.40
2202;DHT22;1107;48.654;9.250;2022-07-01T00:08:58;16.10;71.70
2202;DHT22;1107;48.654;9.250;2022-07-01T00:11:25;16.10;49.00
2202;DHT22;1107;48.654;9.250;2022-07-01T00:13:52;16.10;59.70
2202;DHT22;1107;48.654;9.250;2022-07-01T00:16:19;16.00;49.40
2202;DHT22;1107;48.654;9.250;2022-07-01T00:18:46;15.90;27.90
2202;DHT22;1107;48.654;9.250;2022-07-01T00:21:15;15.90;54.20
2202;DHT22;1107;48.654;9.250;2022-07-01T00:23:42;15.90;17.20
2202;DHT22;1107;48.654;9.250;2022-07-01T00:26:09;15.90;9.90
2202;DHT22;1107;48.654;9.250;2022-07-01T00:28:36;15.90;1.00
2202;DHT22;1107;48.654;9.250;2022-07-01T00:31:03;15.80;6.10
2202;DHT22;1107;48.654;9.250;2022-07-01T00:33:30;15.70;1.00
2202;DHT22;1107;48.654;9.250;2022-07-01T00:35:58;15.70;1.00
2202;DHT22;1107;48.654;9.250;2022-07-01T00:38:27;15.60;1.00
2202;DHT22;1107;48.654;9.250;2022-07-01T00:40:54;15.70;1.00
2202;DHT22;1107;48.654;9.250;2022-07-01T00:43:21;15.70;1.00
2202;DHT22;1107;48.654;9.250;2022-07-01T00:45:50;15.70;1.00
2202;DHT22;1107;48.654;9.250;2022-07-01T00:48:18;15.80;1.00
2202;DHT22;1107;48.654;9.250;2022-07-01T00:50:46;15.70;1.00
2202;DHT22;1107;48.654;9.250;2022-07-01T00:53:14;15.60;1.00
2202;DHT22;1107;48.654;9.250;2022-07-01T00:55:42;15.60;1.00
2202;DHT22;1107;48.654;9.250;2022-07-01T00:58:09;15.60;1.00
2202;DHT22;1107;48.654;9.250;2022-07-01T01:00:37;15.60;1.00
2202;DHT22;1107;48.654;9.250;2022-07-01T01:03:05;15.60;1.00
2202;DHT22;1107;48.654;9.250;2022-07-01T01:05:33;15.60;1.00
2202;DHT22;1107;48.654;9.250;2022-07-01T01:08:01;15.70;1.00
2202;DHT22;1107;48.654;9.250;2022-07-01T01:10:27;15.70;1.00
2202;DHT22;1107;48.654;9.250;2022-07-01T01:12:57;15.70;1.00
2202;DHT22;1107;48.654;9.250;2022-07-01T01:15:24;15.70;1.00
2202;DHT22;1107;48.654;9.250;2022-07-01T01:17:53;15.60;1.00
2202;DHT22;1107;48.654;9.250;2022-07-01T01:20:21;15.60;1.00
2202;DHT22;1107;48.654;9.250;2022-07-01T01:22:50;15.60;1.00
2202;DHT22;1107;48.654;9.250;2022-07-01T01:25:17;15.60;1.00
2202;DHT22;1107;48.654;9.250;2022-07-01T01:27:44;15.60;1.00
2202;DHT22;1107;48.654;9.250;2022-07-01T01:30:12;15.70;1.00
2202;DHT22;1107;48.654;9.250;2022-07-01T01:32:40;15.70;1.00
2202;DHT22;1107;48.654;9.250;2022-07-01T01:35:08;15.70;1.00
2202;DHT22;1107;48.654;9.250;2022-07-01T01:37:35;15.70;1.00
2202;DHT22;1107;48.654;9.250;2022-07-01T01:40:04;15.60;1.00
2202;DHT22;1107;48.654;9.250;2022-07-01T01:42:32;15.50;1.00
2202;DHT22;1107;48.654;9.250;2022-07-01T01:44:59;15.50;1.00
2202;DHT22;1107;48.654;9.250;2022-07-01T01:47:26;15.50;1.00
2202;DHT22;1107;48.654;9.250;2022-07-01T01:49:53;15.40;1.00
2202;DHT22;1107;48.654;9.250;2022-07-01T01:52:20;15.40;1.00
2202;DHT22;1107;48.654;9.250;2022-07-01T01:54:47;15.30;1.00
2202;DHT22;1107;48.654;9.250;2022-07-01T01:57:15;15.30;1.00
2202;DHT22;1107;48.654;9.250;2022-07-01T01:59:42;15.20;1.00
2202;DHT22;1107;48.654;9.250;2022-07-01T02:02:09;15.20;8.70
2202;DHT22;1107;48.654;9.250;2022-07-01T02:04:36;15.20;21.60
2202;DHT22;1107;48.654;9.250;2022-07-01T02:07:03;15.20;1.00
2202;DHT22;1107;48.654;9.250;2022-07-01T02:09:32;15.20;18.70
2202;DHT22;1107;48.654;9.250;2022-07-01T02:11:59;15.20;33.40
2202;DHT22;1107;48.654;9.250;2022-07-01T02:14:28;15.20;31.80
2202;DHT22;1107;48.654;9.250;2022-07-01T02:16:55;15.20;1.00
2202;DHT22;1107;48.654;9.250;2022-07-01T02:19:22;15.10;1.00
2202;DHT22;1107;48.654;9.250;2022-07-01T02:21:49;15.10;1.00
2202;DHT22;1107;48.654;9.250;2022-07-01T02:24:17;15.00;1.00
2202;DHT22;1107;48.654;9.250;2022-07-01T02:26:45;15.00;1.00
2202;DHT22;1107;48.654;9.250;2022-07-01T02:29:12;15.00;1.00
2202;DHT22;1107;48.654;9.250;2022-07-01T02:31:40;15.00;1.00
2202;DHT22;1107;48.654;9.250;2022-07-01T02:34:07;15.00;1.00
2202;DHT22;1107;48.654;9.250;2022-07-01T02:36:34;15.00;1.00
2202;DHT22;1107;48.654;9.250;2022-07-01T02:39:02;15.00;1.00
2202;DHT22;1107;48.654;9.250;2022-07-01T02:41:29;15.00;1.00
2202;DHT22;1107;48.654;9.250;2022-07-01T02:43:56;14.90;1.00
2202;DHT22;1107;48.654;9.250;2022-07-01T02:46:23;14.90;1.00
2202;DHT22;1107;48.654;9.250;2022-07-01T02:48:51;14.80;1.00
2202;DHT22;1107;48.654;9.250;2022-07-01T02:51:18;14.90;1.00
2202;DHT22;1107;48.654;9.250;2022-07-01T02:53:46;14.80;1.00
2202;DHT22;1107;48.654;9.250;2022-07-01T02:56:13;14.70;1.00
2202;DHT22;1107;48.654;9.250;2022-07-01T02:58:40;14.70;1.00
2202;DHT22;1107;48.654;9.250;2022-07-01T03:01:07;14.70;1.00
2202;DHT22;1107;48.654;9.250;2022-07-01T03:03:34;14.80;1.00
2202;DHT22;1107;48.654;9.250;2022-07-01T03:06:02;14.80;1.00
2202;DHT22;1107;48.654;9.250;2022-07-01T03:08:29;14.80;1.00
2202;DHT22;1107;48.654;9.250;2022-07-01T03:10:56;14.80;1.00
2202;DHT22;1107;48.654;9.250;2022-07-01T03:13:23;14.80;1.00
2202;DHT22;1107;48.654;9.250;2022-07-01T03:15:50;14.80;1.00
2202;DHT22;1107;48.654;9.250;2022-07-01T03:18:17;14.80;1.00
2202;DHT22;1107;48.654;9.250;2022-07-01T03:20:44;14.80;1.00
2202;DHT22;1107;48.654;9.250;2022-07-01T03:23:12;14.70;1.00
2202;DHT22;1107;48.654;9.250;2022-07-01T03:25:39;14.80;1.00
2202;DHT22;1107;48.654;9.250;2022-07-01T03:28:06;14.80;1.00
2202;DHT22;1107;48.654;9.250;2022-07-01T03:30:34;14.80;1.00
2202;DHT22;1107;48.654;9.250;2022-07-01T03:33:01;14.90;1.00
2202;DHT22;1107;48.654;9.250;2022-07-01T03:35:28;14.90;1.00
2202;DHT22;1107;48.654;9.250;2022-07-01T03:38:06;15.00;1.00
2202;DHT22;1107;48.654;9.250;2022-07-01T03:40:35;15.00;1.00
2202;DHT22;1107;48.654;9.250;2022-07-01T03:43:02;15.10;1.00
2202;DHT22;1107;48.654;9.250;2022-07-01T03:45:30;15.10;1.00
2202;DHT22;1107;48.654;9.250;2022-07-01T03:47:57;15.00;1.00
2202;DHT22;1107;48.654;9.250;2022-07-01T03:50:25;15.00;1.00
2202;DHT22;1107;48.654;9.250;2022-07-01T03:52:52;15.00;1.00
2202;DHT22;1107;48.654;9.250;2022-07-01T03:55:34;15.00;1.00
2202;DHT22;1107;48.654;9.250;2022-07-01T03:58:01;15.00;1.00
2202;DHT22;1107;48.654;9.250;2022-07-01T04:00:28;15.00;1.00
2202;DHT22;1107;48.654;9.250;2022-07-01T04:02:57;14.90;1.00
2202;DHT22;1107;48.654;9.250;2022-07-01T04:05:24;14.90;1.00
2202;DHT22;1107;48.654;9.250;2022-07-01T04:07:51;14.90;1.00
2202;DHT22;1107;48.654;9.250;2022-07-01T04:10:18;14.90;1.00
2202;DHT22;1107;48.654;9.250;2022-07-01T04:12:47;15.00;1.00
2202;DHT22;1107;48.654;9.250;2022-07-01T04:15:14;15.00;1.00
2202;DHT22;1107;48.654;9.250;2022-07-01T04:17:41;15.00;1.00
2202;DHT22;1107;48.654;9.250;2022-07-01T04:20:09;15.00;1.00
2202;DHT22;1107;48.654;9.250;2022-07-01T04:22:36;14.90;1.00
2202;DHT22;1107;48.654;9.250;2022-07-01T04:25:04;15.00;1.00
2202;DHT22;1107;48.654;9.250;2022-07-01T04:27:31;15.00;1.00
2202;DHT22;1107;48.654;9.250;2022-07-01T04:29:59;14.90;1.00
2202;DHT22;1107;48.654;9.250;2022-07-01T04:32:27;14.90;1.00
2202;DHT22;1107;48.654;9.250;2022-07-01T04:34:55;14.80;1.00
2202;DHT22;1107;48.654;9.250;2022-07-01T04:37:22;14.90;1.00
2202;DHT22;1107;48.654;9.250;2022-07-01T04:39:49;14.90;1.00
2202;DHT22;1107;48.654;9.250;2022-07-01T04:42:16;15.00;1.00
2202;DHT22;1107;48.654;9.250;2022-07-01T04:44:44;15.00;1.00
2202;DHT22;1107;48.654;9.250;2022-07-01T04:47:12;15.00;1.00
2202;DHT22;1107;48.654;9.250;2022-07-01T04:49:39;15.00;11.20
2202;DHT22;1107;48.654;9.250;2022-07-01T04:52:06;15.00;5.10
2202;DHT22;1107;48.654;9.250;2022-07-01T04:54:33;15.10;1.00
2202;DHT22;1107;48.654;9.250;2022-07-01T04:57:01;15.10;1.00
2202;DHT22;1107;48.654;9.250;2022-07-01T04:59:28;15.20;1.00
2202;DHT22;1107;48.654;9.250;2022-07-01T05:01:55;15.20;1.00
2202;DHT22;1107;48.654;9.250;2022-07-01T05:04:25;15.10;1.00
2202;DHT22;1107;48.654;9.250;2022-07-01T05:06:53;15.10;1.00
2202;DHT22;1107;48.654;9.250;2022-07-01T05:09:21;15.10;1.00
2202;DHT22;1107;48.654;9.250;2022-07-01T05:11:48;15.10;1.00
2202;DHT22;1107;48.654;9.250;2022-07-01T05:14:14;15.10;1.00
2202;DHT22;1107;48.654;9.250;2022-07-01T05:16:41;15.10;1.00
2202;DHT22;1107;48.654;9.250;2022-07-01T05:19:08;15.10;3.20
2202;DHT22;1107;48.654;9.250;2022-07-01T05:21:54;15.10;1.00
2202;DHT22;1107;48.654;9.250;2022-07-01T05:24:27;15.10;1.00
2202;DHT22;1107;48.654;9.250;2022-07-01T05:26:58;15.10;1.20
2202;DHT22;1107;48.654;9.250;2022-07-01T05:29:25;15.00;1.00
2202;DHT22;1107;48.654;9.250;2022-07-01T05:31:52;15.00;1.00
2202;DHT22;1107;48.654;9.250;2022-07-01T05:34:19;15.00;1.00
2202;DHT22;1107;48.654;9.250;2022-07-01T05:36:46;15.00;1.00
2202;DHT22;1107;48.654;9.250;2022-07-01T05:39:15;14.90;1.00
2202;DHT22;1107;48.654;9.250;2022-07-01T05:41:42;14.90;1.00
2202;DHT22;1107;48.654;9.250;2022-07-01T05:44:09;14.80;1.00
2202;DHT22;1107;48.654;9.250;2022-07-01T05:46:36;14.80;1.00
2202;DHT22;1107;48.654;9.250;2022-07-01T05:49:03;14.80;5.30
2202;DHT22;1107;48.654;9.250;2022-07-01T05:51:30;14.90;1.00
2202;DHT22;1107;48.654;9.250;2022-07-01T05:53:57;14.90;17.60
2202;DHT22;1107;48.654;9.250;2022-07-01T05:56:26;14.80;1.00
2202;DHT22;1107;48.654;9.250;2022-07-01T05:58:53;14.80;18.70
2202;DHT22;1107;48.654;9.250;2022-07-01T06:01:20;14.90;6.70
2202;DHT22;1107;48.654;9.250;2022-07-01T06:03:47;14.80;1.00
2202;DHT22;1107;48.654;9.250;2022-07-01T06:06:15;14.90;8.50
2202;DHT22;1107;48.654;9.250;2022-07-01T06:08:44;14.90;5.20
2202;DHT22;1107;48.654;9.250;2022-07-01T06:11:10;14.90;1.00
2202;DHT22;1107;48.654;9.250;2022-07-01T06:13:39;15.00;1.00
2202;DHT22;1107;48.654;9.250;2022-07-01T06:16:06;15.00;1.00
2202;DHT22;1107;48.654;9.250;2022-07-01T06:18:33;15.10;1.00
2202;DHT22;1107;48.654;9.250;2022-07-01T06:21:00;15.10;1.00
2202;DHT22;1107;48.654;9.250;2022-07-01T06:23:27;15.10;1.00
2202;DHT22;1107;48.654;9.250;2022-07-01T06:25:54;15.10;1.00
2202;DHT22;1107;48.654;9.250;2022-07-01T06:28:21;15.10;1.00
2202;DHT22;1107;48.654;9.250;2022-07-01T06:30:49;15.20;1.00
2202;DHT22;1107;48.654;9.250;2022-07-01T06:33:20;15.30;1.00
2202;DHT22;1107;48.654;9.250;2022-07-01T06:35:47;15.20;1.00
2202;DHT22;1107;48.654;9.250;2022-07-01T06:38:14;15.40;1.00
2202;DHT22;1107;48.654;9.250;2022-07-01T06:40:41;15.40;1.00
2202;DHT22;1107;48.654;9.250;2022-07-01T06:43:08;15.40;1.00
2202;DHT22;1107;48.654;9.250;2022-07-01T06:45:34;15.30;1.00
2202;DHT22;1107;48.654;9.250;2022-07-01T06:48:03;15.40;1.00
2202;DHT22;1107;48.654;9.250;2022-07-01T06:50:30;15.40;1.00
2202;DHT22;1107;48.654;9.250;2022-07-01T06:52:57;15.50;1.00
2202;DHT22;1107;48.654;9.250;2022-07-01T06:55:24;15.50;1.00
2202;DHT22;1107;48.654;9.250;2022-07-01T06:57:51;15.60;1.00
2202;DHT22;1107;48.654;9.250;2022-07-01T07:00:18;15.50;1.00
2202;DHT22;1107;48.654;9.250;2022-07-01T07:02:45;15.50;1.00
2202;DHT22;1107;48.654;9.250;2022-07-01T07:05:14;15.50;1.00
2202;DHT22;1107;48.654;9.250;2022-07-01T07:07:41;15.60;1.00
2202;DHT22;1107;48.654;9.250;2022-07-01T07:10:09;15.50;1.00
2202;DHT22;1107;48.654;9.250;2022-07-01T07:12:36;15.50;1.00
2202;DHT22;1107;48.654;9.250;2022-07-01T07:15:03;15.50;1.00
2202;DHT22;1107;48.654;9.250;2022-07-01T07:17:30;15.50;1.00
2202;DHT22;1107;48.654;9.250;2022-07-01T07:19:57;15.50;1.00
2202;DHT22;1107;48.654;9.250;2022-07-01T07:22:26;15.40;1.00
2202;DHT22;1107;48.654;9.250;2022-07-01T07:24:53;15.40;1.00
2202;DHT22;1107;48.654;9.250;2022-07-01T07:27:20;15.40;1.00
2202;DHT22;1107;48.654;9.250;2022-07-01T07:29:47;15.50;1.00
2202;DHT22;1107;48.654;9.250;2022-07-01T07:32:14;15.60;1.00
2202;DHT22;1107;48.654;9.250;2022-07-01T07:34:41;15.70;1.00
2202;DHT22;1107;48.654;9.250;2022-07-01T07:37:08;15.70;1.00
2202;DHT22;1107;48.654;9.250;2022-07-01T07:39:37;15.70;1.00
2202;DHT22;1107;48.654;9.250;2022-07-01T07:42:04;15.60;1.00
2202;DHT22;1107;48.654;9.250;2022-07-01T07:44:32;15.60;1.00
2202;DHT22;1107;48.654;9.250;2022-07-01T07:46:59;15.70;1.00
2202;DHT22;1107;48.654;9.250;2022-07-01T07:49:26;15.70;1.00
2202;DHT22;1107;48.654;9.250;2022-07-01T07:51:53;15.70;1.00
2202;DHT22;1107;48.654;9.250;2022-07-01T07:54:20;15.70;1.00
2202;DHT22;1107;48.654;9.250;2022-07-01T07:56:48;15.70;1.00
2202;DHT22;1107;48.654;9.250;2022-07-01T07:59:15;15.70;1.00
2202;DHT22;1107;48.654;9.250;2022-07-01T08:01:42;15.60;1.00
2202;DHT22;1107;48.654;9.250;2022-07-01T08:04:09;15.60;1.00
2202;DHT22;1107;48.654;9.250;2022-07-01T08:06:36;15.60;1.00
2202;DHT22;1107;48.654;9.250;2022-07-01T08:09:04;15.60;1.00
2202;DHT22;1107;48.654;9.250;2022-07-01T08:11:31;15.60;1.00
2202;DHT22;1107;48.654;9.250;2022-07-01T08:14:00;15.70;1.00
2202;DHT22;1107;48.654;9.250;2022-07-01T08:16:27;15.80;1.00
2202;DHT22;1107;48.654;9.250;2022-07-01T08:18:54;15.90;1.00
2202;DHT22;1107;48.654;9.250;2022-07-01T08:21:21;16.10;1.00
2202;DHT22;1107;48.654;9.250;2022-07-01T08:23:48;16.30;1.00
2202;DHT22;1107;48.654;9.250;2022-07-01T08:26:15;16.30;1.00
2202;DHT22;1107;48.654;9.250;2022-07-01T08:28:43;16.30;1.00
2202;DHT22;1107;48.654;9.250;2022-07-01T08:31:12;16.30;99.90
2202;DHT22;1107;48.654;9.250;2022-07-01T08:33:40;16.40;99.90
2202;DHT22;1107;48.654;9.250;2022-07-01T08:36:08;16.40;1.00
2202;DHT22;1107;48.654;9.250;2022-07-01T08:38:36;16.40;1.00
2202;DHT22;1107;48.654;9.250;2022-07-01T08:41:03;16.20;1.00
2202;DHT22;1107;48.654;9.250;2022-07-01T08:43:30;16.30;99.90
2202;DHT22;1107;48.654;9.250;2022-07-01T08:45:59;16.30;1.00
2202;DHT22;1107;48.654;9.250;2022-07-01T08:48:28;16.20;1.00
2202;DHT22;1107;48.654;9.250;2022-07-01T08:50:56;16.20;99.90
2202;DHT22;1107;48.654;9.250;2022-07-01T08:53:23;16.10;1.00
2202;DHT22;1107;48.654;9.250;2022-07-01T08:55:50;16.10;1.00
2202;DHT22;1107;48.654;9.250;2022-07-01T08:58:33;16.20;1.00
2202;DHT22;1107;48.654;9.250;2022-07-01T09:01:15;16.30;1.00
2202;DHT22;1107;48.654;9.250;2022-07-01T09:03:44;16.40;1.00
2202;DHT22;1107;48.654;9.250;2022-07-01T09:06:13;16.50;1.00
2202;DHT22;1107;48.654;9.250;2022-07-01T09:08:41;16.50;99.90
2202;DHT22;1107;48.654;9.250;2022-07-01T09:11:12;16.40;1.00
2202;DHT22;1107;48.654;9.250;2022-07-01T09:13:40;16.40;1.00
2202;DHT22;1107;48.654;9.250;2022-07-01T09:16:14;16.30;99.90
2202;DHT22;1107;48.654;9.250;2022-07-01T09:19:01;16.30;99.90
2202;DHT22;1107;48.654;9.250;2022-07-01T09:21:29;16.30;1.00
2202;DHT22;1107;48.654;9.250;2022-07-01T09:23:56;16.30;1.00
2202;DHT22;1107;48.654;9.250;2022-07-01T09:26:23;16.30;1.00
2202;DHT22;1107;48.654;9.250;2022-07-01T09:28:53;16.20;1.00
2202;DHT22;1107;48.654;9.250;2022-07-01T09:31:21;16.20;1.00
2202;DHT22;1107;48.654;9.250;2022-07-01T09:34:04;16.20;1.00
2202;DHT22;1107;48.654;9.250;2022-07-01T09:36:31;16.20;99.90
2202;DHT22;1107;48.654;9.250;2022-07-01T09:39:03;16.00;99.90
2202;DHT22;1107;48.654;9.250;2022-07-01T09:41:35;15.90;1.00
2202;DHT22;1107;48.654;9.250;2022-07-01T09:44:06;15.80;1.00
2202;DHT22;1107;48.654;9.250;2022-07-01T09:46:34;15.70;1.00
2202;DHT22;1107;48.654;9.250;2022-07-01T09:49:03;15.70;1.00
2202;DHT22;1107;48.654;9.250;2022-07-01T09:51:30;15.60;99.90
2202;DHT22;1107;48.654;9.250;2022-07-01T09:53:57;15.60;1.00
2202;DHT22;1107;48.654;9.250;2022-07-01T09:56:24;15.70;1.00
2202;DHT22;1107;48.654;9.250;2022-07-01T09:58:51;15.70;1.00
2202;DHT22;1107;48.654;9.250;2022-07-01T10:01:18;15.80;1.00
2202;DHT22;1107;48.654;9.250;2022-07-01T10:03:46;15.90;1.00
2202;DHT22;1107;48.654;9.250;2022-07-01T10:06:31;16.00;1.00
2202;DHT22;1107;48.654;9.250;2022-07-01T10:09:13;16.20;99.90
2202;DHT22;1107;48.654;9.250;2022-07-01T10:12:10;16.20;99.90
2202;DHT22;1107;48.654;9.250;2022-07-01T10:14:40;16.20;1.00
2202;DHT22;1107;48.654;9.250;2022-07-01T10:17:09;16.20;99.90
2202;DHT22;1107;48.654;9.250;2022-07-01T10:19:36;16.20;1.00
2202;DHT22;1107;48.654;9.250;2022-07-01T10:22:28;16.20;1.00
2202;DHT22;1107;48.654;9.250;2022-07-01T10:24:58;16.30;99.90
2202;DHT22;1107;48.654;9.250;2022-07-01T10:27:43;16.60;1.00
2202;DHT22;1107;48.654;9.250;2022-07-01T10:30:14;17.00;99.90
2202;DHT22;1107;48.654;9.250;2022-07-01T10:32:47;17.20;29.80
2202;DHT22;1107;48.654;9.250;2022-07-01T10:35:15;17.30;99.90
2202;DHT22;1107;48.654;9.250;2022-07-01T10:40:43;17.40;99.90
2202;DHT22;1107;48.654;9.250;2022-07-01T10:43:15;17.10;1.00
2202;DHT22;1107;48.654;9.250;2022-07-01T10:45:43;16.90;99.90
2202;DHT22;1107;48.654;9.250;2022-07-01T10:48:21;16.90;1.00
2202;DHT22;1107;48.654;9.250;2022-07-01T10:50:49;16.80;1.00
2202;DHT22;1107;48.654;9.250;2022-07-01T10:53:16;16.80;1.00
2202;DHT22;1107;48.654;9.250;2022-07-01T10:55:47;16.90;1.00
2202;DHT22;1107;48.654;9.250;2022-07-01T10:58:14;17.00;1.00
2202;DHT22;1107;48.654;9.250;2022-07-01T11:00:45;17.00;1.00
2202;DHT22;1107;48.654;9.250;2022-07-01T11:03:18;16.90;99.90
2202;DHT22;1107;48.654;9.250;2022-07-01T11:05:47;17.00;1.00
2202;DHT22;1107;48.654;9.250;2022-07-01T11:08:14;17.20;1.00
2202;DHT22;1107;48.654;9.250;2022-07-01T11:10:42;17.40;99.90
2202;DHT22;1107;48.654;9.250;2022-07-01T11:13:14;17.60;99.90
2202;DHT22;1107;48.654;9.250;2022-07-01T11:15:44;17.90;99.90
2202;DHT22;1107;48.654;9.250;2022-07-01T11:18:13;18.00;1.00
2202;DHT22;1107;48.654;9.250;2022-07-01T11:20:40;17.80;1.00
2202;DHT22;1107;48.654;9.250;2022-07-01T11:23:07;17.80;1.00
2202;DHT22;1107;48.654;9.250;2022-07-01T11:25:34;18.00;99.90
2202;DHT22;1107;48.654;9.250;2022-07-01T11:28:01;18.10;1.00
2202;DHT22;1107;48.654;9.250;2022-07-01T11:30:30;17.90;1.00
2202;DHT22;1107;48.654;9.250;2022-07-01T11:32:58;17.80;1.00
2202;DHT22;1107;48.654;9.250;2022-07-01T11:35:27;17.70;1.00
2202;DHT22;1107;48.654;9.250;2022-07-01T11:38:13;17.60;1.00
2202;DHT22;1107;48.654;9.250;2022-07-01T11:41:00;17.30;99.90
2202;DHT22;1107;48.654;9.250;2022-07-01T11:43:28;17.20;24.10
2202;DHT22;1107;48.654;9.250;2022-07-01T11:45:58;17.60;99.90
2202;DHT22;1107;48.654;9.250;2022-07-01T11:48:39;18.10;1.00
2202;DHT22;1107;48.654;9.250;2022-07-01T11:51:10;18.30;99.90
2202;DHT22;1107;48.654;9.250;2022-07-01T11:53:39;18.30;19.30
2202;DHT22;1107;48.654;9.250;2022-07-01T11:56:06;18.30;1.00
2202;DHT22;1107;48.654;9.250;2022-07-01T11:58:44;18.20;99.90
2202;DHT22;1107;48.654;9.250;2022-07-01T12:01:20;18.00;1.00
2202;DHT22;1107;48.654;9.250;2022-07-01T12:03:47;17.80;99.90
2202;DHT22;1107;48.654;9.250;2022-07-01T12:06:16;17.40;99.90
2202;DHT22;1107;48.654;9.250;2022-07-01T12:08:44;17.10;99.90
2202;DHT22;1107;48.654;9.250;2022-07-01T12:11:11;17.10;1.00
2202;DHT22;1107;48.654;9.250;2022-07-01T12:13:38;17.30;1.00
2202;DHT22;1107;48.654;9.250;2022-07-01T12:16:06;17.40;99.90
2202;DHT22;1107;48.654;9.250;2022-07-01T12:18:35;17.40;99.90
2202;DHT22;1107;48.654;9.250;2022-07-01T12:21:02;17.50;99.90
2202;DHT22;1107;48.654;9.250;2022-07-01T12:23:30;17.80;1.00
2202;DHT22;1107;48.654;9.250;2022-07-01T12:25:58;18.00;99.90
2202;DHT22;1107;48.654;9.250;2022-07-01T12:28:27;18.00;45.70
2202;DHT22;1107;48.654;9.250;2022-07-01T12:31:02;18.30;99.90
2202;DHT22;1107;48.654;9.250;2022-07-01T12:33:29;18.40;42.20
2202;DHT22;1107;48.654;9.250;2022-07-01T12:36:01;19.00;1.00
2202;DHT22;1107;48.654;9.250;2022-07-01T12:38:28;19.50;99.90
2202;DHT22;1107;48.654;9.250;2022-07-01T12:40:55;20.00;86.60
2202;DHT22;1107;48.654;9.250;2022-07-01T12:43:26;20.10;30.60
2202;DHT22;1107;48.654;9.250;2022-07-01T12:45:56;20.10;1.00
2202;DHT22;1107;48.654;9.250;2022-07-01T12:48:23;19.80;1.00
2202;DHT22;1107;48.654;9.250;2022-07-01T12:50:52;19.50;1.00
2202;DHT22;1107;48.654;9.250;2022-07-01T12:53:22;19.30;99.90
2202;DHT22;1107;48.654;9.250;2022-07-01T12:55:51;19.10;1.00
2202;DHT22;1107;48.654;9.250;2022-07-01T12:58:20;19.00;1.00
2202;DHT22;1107;48.654;9.250;2022-07-01T13:00:49;18.80;1.00
2202;DHT22;1107;48.654;9.250;2022-07-01T13:03:19;18.50;1.00
2202;DHT22;1107;48.654;9.250;2022-07-01T13:05:46;18.30;1.00
2202;DHT22;1107;48.654;9.250;2022-07-01T13:08:14;18.20;1.00
2202;DHT22;1107;48.654;9.250;2022-07-01T13:10:44;18.50;1.00
2202;DHT22;1107;48.654;9.250;2022-07-01T13:13:11;18.90;1.00
2202;DHT22;1107;48.654;9.250;2022-07-01T13:15:38;19.10;99.90
2202;DHT22;1107;48.654;9.250;2022-07-01T13:18:08;19.50;1.00
2202;DHT22;1107;48.654;9.250;2022-07-01T13:20:35;20.00;1.00
2202;DHT22;1107;48.654;9.250;2022-07-01T13:23:03;20.10;1.00
2202;DHT22;1107;48.654;9.250;2022-07-01T13:25:30;19.70;1.00
2202;DHT22;1107;48.654;9.250;2022-07-01T13:27:59;19.30;1.00
2202;DHT22;1107;48.654;9.250;2022-07-01T13:30:26;19.60;1.00
2202;DHT22;1107;48.654;9.250;2022-07-01T13:32:53;19.70;1.00
2202;DHT22;1107;48.654;9.250;2022-07-01T13:35:22;19.80;1.00
2202;DHT22;1107;48.654;9.250;2022-07-01T13:37:49;19.90;1.00
2202;DHT22;1107;48.654;9.250;2022-07-01T13:40:17;20.20;1.00
2202;DHT22;1107;48.654;9.250;2022-07-01T13:42:44;20.40;1.00
2202;DHT22;1107;48.654;9.250;2022-07-01T13:45:12;20.40;1.00
2202;DHT22;1107;48.654;9.250;2022-07-01T13:47:40;20.30;1.00
2202;DHT22;1107;48.654;9.250;2022-07-01T13:50:08;20.20;1.00
2202;DHT22;1107;48.654;9.250;2022-07-01T13:52:36;20.50;1.00
2202;DHT22;1107;48.654;9.250;2022-07-01T13:55:04;20.80;1.00
2202;DHT22;1107;48.654;9.250;2022-07-01T13:57:32;21.00;1.00
2202;DHT22;1107;48.654;9.250;2022-07-01T13:59:59;20.90;1.00
2202;DHT22;1107;48.654;9.250;2022-07-01T14:02:27;21.40;1.00
2202;DHT22;1107;48.654;9.250;2022-07-01T14:04:54;21.80;99.90
2202;DHT22;1107;48.654;9.250;2022-07-01T14:07:21;21.60;99.90
2202;DHT22;1107;48.654;9.250;2022-07-01T14:09:48;21.80;99.90
2202;DHT22;1107;48.654;9.250;2022-07-01T14:12:15;21.70;99.90
2202;DHT22;1107;48.654;9.250;2022-07-01T14:14:42;21.60;99.90
2202;DHT22;1107;48.654;9.250;2022-07-01T14:17:09;21.40;99.90
2202;DHT22;1107;48.654;9.250;2022-07-01T14:19:38;21.10;99.90
2202;DHT22;1107;48.654;9.250;2022-07-01T14:22:05;21.20;99.90
2202;DHT22;1107;48.654;9.250;2022-07-01T14:24:32;20.80;1.00
2202;DHT22;1107;48.654;9.250;2022-07-01T14:26:59;20.60;1.00
2202;DHT22;1107;48.654;9.250;2022-07-01T14:29:26;20.50;1.00
2202;DHT22;1107;48.654;9.250;2022-07-01T14:31:53;20.50;1.00
2202;DHT22;1107;48.654;9.250;2022-07-01T14:34:20;20.60;1.00
2202;DHT22;1107;48.654;9.250;2022-07-01T14:36:49;20.60;1.00
2202;DHT22;1107;48.654;9.250;2022-07-01T14:39:16;20.60;1.00
2202;DHT22;1107;48.654;9.250;2022-07-01T14:41:43;20.70;1.00
2202;DHT22;1107;48.654;9.250;2022-07-01T14:44:15;20.70;1.00
2202;DHT22;1107;48.654;9.250;2022-07-01T14:46:42;20.70;1.00
2202;DHT22;1107;48.654;9.250;2022-07-01T14:49:09;20.80;99.90
2202;DHT22;1107;48.654;9.250;2022-07-01T14:51:37;20.70;99.90
2202;DHT22;1107;48.654;9.250;2022-07-01T14:54:06;20.80;1.00
2202;DHT22;1107;48.654;9.250;2022-07-01T14:56:33;20.80;1.00
2202;DHT22;1107;48.654;9.250;2022-07-01T14:59:00;20.70;1.00
2202;DHT22;1107;48.654;9.250;2022-07-01T15:01:27;20.30;1.00
2202;DHT22;1107;48.654;9.250;2022-07-01T15:03:54;20.40;1.00
2202;DHT22;1107;48.654;9.250;2022-07-01T15:06:21;20.50;1.00
2202;DHT22;1107;48.654;9.250;2022-07-01T15:08:48;20.20;1.00
2202;DHT22;1107;48.654;9.250;2022-07-01T15:11:16;20.30;1.00
2202;DHT22;1107;48.654;9.250;2022-07-01T15:13:43;20.40;1.00
2202;DHT22;1107;48.654;9.250;2022-07-01T15:16:10;20.50;1.00
2202;DHT22;1107;48.654;9.250;2022-07-01T15:18:37;20.40;1.00
2202;DHT22;1107;48.654;9.250;2022-07-01T15:21:04;20.30;1.00
2202;DHT22;1107;48.654;9.250;2022-07-01T15:23:32;20.50;1.00
2202;DHT22;1107;48.654;9.250;2022-07-01T15:25:59;20.50;99.90
2202;DHT22;1107;48.654;9.250;2022-07-01T15:28:28;20.30;99.90
2202;DHT22;1107;48.654;9.250;2022-07-01T15:30:54;20.30;99.90
2202;DHT22;1107;48.654;9.250;2022-07-01T15:33:21;20.20;1.00
2202;DHT22;1107;48.654;9.250;2022-07-01T15:35:48;20.20;99.90
2202;DHT22;1107;48.654;9.250;2022-07-01T15:38:16;20.30;99.90
2202;DHT22;1107;48.654;9.250;2022-07-01T15:40:43;20.40;99.90
2202;DHT22;1107;48.654;9.250;2022-07-01T15:43:12;20.40;99.90
2202;DHT22;1107;48.654;9.250;2022-07-01T15:45:41;20.30;99.90
2202;DHT22;1107;48.654;9.250;2022-07-01T15:48:08;20.10;99.90
2202;DHT22;1107;48.654;9.250;2022-07-01T15:50:37;20.10;99.90
2202;DHT22;1107;48.654;9.250;2022-07-01T15:53:05;20.30;99.90
2202;DHT22;1107;48.654;9.250;2022-07-01T15:55:32;20.40;99.90
2202;DHT22;1107;48.654;9.250;2022-07-01T15:57:59;20.40;99.90
2202;DHT22;1107;48.654;9.250;2022-07-01T16:00:27;20.50;99.90
2202;DHT22;1107;48.654;9.250;2022-07-01T16:02:57;20.50;99.90
2202;DHT22;1107;48.654;9.250;2022-07-01T16:05:25;20.50;99.90
2202;DHT22;1107;48.654;9.250;2022-07-01T16:07:57;20.50;99.90
2202;DHT22;1107;48.654;9.250;2022-07-01T16:10:40;20.10;99.90
2202;DHT22;1107;48.654;9.250;2022-07-01T16:13:10;19.90;99.90
2202;DHT22;1107;48.654;9.250;2022-07-01T16:15:38;19.70;99.90
2202;DHT22;1107;48.654;9.250;2022-07-01T16:18:10;19.60;99.90
2202;DHT22;1107;48.654;9.250;2022-07-01T16:20:39;19.70;99.90
2202;DHT22;1107;48.654;9.250;2022-07-01T16:23:09;19.60;99.90
2202;DHT22;1107;48.654;9.250;2022-07-01T16:25:39;19.50;99.90